Time;durP1;ratioP1;P1;durP2;ratioP2;P2;SDS_P1;SDS_P2;PMS_P1;PMS_P2;Temp;Humidity;BMP_temperature;BMP_pressure;BME280_temperature;BME280_humidity;BME280_pressure;Samples;Min_cycle;Max_cycle;Signal;HPM_P1;HPM_P2
2022/01/13 00:01:41;;;;;;;20.37;17.30;;;;;;;5.88;51.99;100162.59;8455689;28;20533;-68
2022/01/13 00:05:44;;;;;;;20.70;17.03;;;;;;;5.81;52.53;100165.09;8481865;28;20239;-67
2022/01/13 00:09:47;;;;;;;19.07;16.00;;;;;;;5.87;52.22;100157.44;8481980;28;20536;-67
2022/01/13 00:14:10;;;;;;;18.53;16.17;;;;;;;5.76;52.63;100170.16;8482027;28;20241;-67
2022/01/13 00:18:15;;;;;;;17.47;15.60;;;;;;;5.78;52.56;100168.47;8481696;28;20419;-67
2022/01/13 00:22:25;;;;;;;18.23;16.27;;;;;;;5.82;52.40;100164.22;8472629;28;20429;-67
2022/01/13 00:26:30;;;;;;;18.13;16.30;;;;;;;5.78;52.35;100162.47;8470521;28;20228;-67
2022/01/13 00:30:35;;;;;;;18.73;16.53;;;;;;;5.70;52.92;100169.25;8440826;28;20229;-67
2022/01/13 00:34:38;;;;;;;20.43;16.30;;;;;;;5.75;52.77;100183.00;8444852;28;20236;-67
2022/01/13 00:38:40;;;;;;;18.07;16.27;;;;;;;5.76;52.75;100190.75;8447533;28;20241;-67
2022/01/13 00:42:43;;;;;;;18.50;16.60;;;;;;;5.68;53.22;100187.22;8447965;28;20240;-67
2022/01/13 00:46:50;;;;;;;18.53;16.53;;;;;;;5.70;53.14;100195.81;8447452;28;20230;-67
2022/01/13 00:50:53;;;;;;;18.20;16.30;;;;;;;5.68;53.15;100193.22;8447211;28;20383;-67
2022/01/13 00:54:56;;;;;;;18.27;16.10;;;;;;;5.77;53.11;100186.44;8447546;28;20240;-67
2022/01/13 00:59:00;;;;;;;18.00;16.10;;;;;;;5.77;53.16;100181.31;8447694;28;20230;-67
2022/01/13 01:03:04;;;;;;;18.30;16.13;;;;;;;5.85;53.15;100183.13;8446987;28;20238;-67
2022/01/13 01:07:07;;;;;;;19.17;16.73;;;;;;;5.78;52.98;100175.34;8446934;28;20230;-67
2022/01/13 01:11:10;;;;;;;19.77;17.00;;;;;;;5.78;52.88;100177.91;8448118;28;20229;-67
2022/01/13 01:15:13;;;;;;;18.27;16.23;;;;;;;5.78;52.98;100167.63;8453654;28;20551;-67
2022/01/13 01:19:26;;;;;;;18.67;16.10;;;;;;;5.78;53.23;100167.63;8453800;28;20225;-67
2022/01/13 01:23:29;;;;;;;17.03;15.27;;;;;;;5.72;53.03;100168.41;8453503;28;20528;-67
2022/01/13 01:27:36;;;;;;;18.50;16.50;;;;;;;5.74;53.60;100171.88;8452573;28;20229;-67
2022/01/13 01:31:40;;;;;;;21.77;16.20;;;;;;;5.72;53.61;100173.56;8453064;28;20244;-67
2022/01/13 01:35:44;;;;;;;17.63;15.83;;;;;;;5.81;53.58;100173.66;8452917;28;20241;-67
2022/01/13 01:39:49;;;;;;;18.13;16.23;;;;;;;5.75;53.43;100178.75;8453032;28;20234;-67
2022/01/13 01:43:55;;;;;;;18.80;15.80;;;;;;;5.78;53.24;100168.47;8454261;28;20250;-68
2022/01/13 01:48:02;;;;;;;17.77;15.87;;;;;;;5.76;53.44;100171.88;8454704;28;20210;-67
2022/01/13 01:52:07;;;;;;;18.17;16.27;;;;;;;5.75;53.64;100165.00;8455085;28;20202;-67
2022/01/13 01:56:10;;;;;;;17.50;15.53;;;;;;;5.67;53.87;100164.94;8453523;28;20225;-67
2022/01/13 02:00:15;;;;;;;18.60;16.60;;;;;;;5.55;53.79;100157.94;8452547;28;20246;-67
2022/01/13 02:04:19;;;;;;;18.93;16.73;;;;;;;5.51;53.76;100150.19;8451991;28;20234;-67
2022/01/13 02:08:24;;;;;;;18.60;16.57;;;;;;;5.60;53.40;100153.72;8451928;28;20230;-67
2022/01/13 02:12:33;;;;;;;19.33;16.67;;;;;;;5.71;53.38;100145.25;8452222;28;20230;-67
2022/01/13 02:16:44;;;;;;;19.03;17.03;;;;;;;5.67;53.42;100150.38;8485394;28;20229;-67
2022/01/13 02:20:52;;;;;;;18.77;16.40;;;;;;;5.64;53.32;100146.91;8484841;28;20229;-67
2022/01/13 02:24:55;;;;;;;19.83;16.97;;;;;;;5.67;53.55;100152.97;8483946;28;20230;-67
2022/01/13 02:28:59;;;;;;;18.47;16.57;;;;;;;5.57;53.62;100138.25;8484925;28;20254;-67
2022/01/13 02:33:02;;;;;;;19.40;17.33;;;;;;;5.65;53.20;100136.66;8485052;28;20528;-67
2022/01/13 02:37:06;;;;;;;18.97;17.03;;;;;;;5.60;53.55;100128.03;8484639;28;20233;-67
2022/01/13 02:41:09;;;;;;;19.67;17.57;;;;;;;5.58;53.54;100127.16;8484599;28;20249;-67
2022/01/13 02:45:18;;;;;;;20.97;17.07;;;;;;;5.48;53.83;100128.75;8484550;28;20532;-67
2022/01/13 02:49:23;;;;;;;18.50;16.50;;;;;;;5.51;53.79;100127.94;8484279;28;20414;-67
2022/01/13 02:53:28;;;;;;;20.07;17.30;;;;;;;5.46;53.95;100130.47;8484281;28;20536;-67
2022/01/13 02:57:32;;;;;;;19.63;17.20;;;;;;;5.50;53.86;100115.91;8449957;28;20229;-67
2022/01/13 03:01:35;;;;;;;18.37;16.37;;;;;;;5.47;53.97;100119.31;8450034;28;20233;-67
2022/01/13 03:05:39;;;;;;;18.17;16.33;;;;;;;5.53;53.82;100118.53;8450130;28;20230;-67
2022/01/13 03:09:43;;;;;;;18.73;16.73;;;;;;;5.46;53.72;100119.28;8450266;28;20237;-67
2022/01/13 03:13:47;;;;;;;21.20;16.47;;;;;;;5.45;53.93;100125.28;8450187;28;20430;-67
2022/01/13 03:17:50;;;;;;;21.40;17.60;;;;;;;5.55;53.66;100113.41;8450005;28;20230;-67
2022/01/13 03:21:53;;;;;;;18.90;17.03;;;;;;;5.48;54.20;100115.91;8449693;28;20233;-67
2022/01/13 03:25:57;;;;;;;19.07;16.60;;;;;;;5.57;53.67;100114.28;8449856;28;20226;-67
2022/01/13 03:30:01;;;;;;;19.07;17.07;;;;;;;5.49;53.89;100125.34;8449694;28;20562;-68
2022/01/13 03:34:04;;;;;;;19.20;17.00;;;;;;;5.46;53.67;100125.31;8449413;28;20233;-67
2022/01/13 03:38:07;;;;;;;18.90;16.80;;;;;;;5.47;54.16;100121.88;8449312;28;20229;-67
2022/01/13 03:42:11;;;;;;;18.17;16.37;;;;;;;5.40;53.96;100116.66;8449391;28;20582;-67
2022/01/13 03:46:15;;;;;;;18.07;16.10;;;;;;;5.55;53.85;100113.41;8449139;28;20222;-67
2022/01/13 03:50:18;;;;;;;19.93;17.73;;;;;;;5.47;54.19;100110.75;8449292;28;20536;-67
2022/01/13 03:55:03;;;;;;;18.60;16.80;;;;;;;5.50;54.08;100115.91;8448890;28;20278;-67
2022/01/13 03:59:57;;;;;;;18.30;16.40;;;;;;;5.44;54.07;100111.56;8448450;28;20230;-67
2022/01/13 04:04:01;;;;;;;19.27;17.30;;;;;;;5.46;54.14;100119.28;8349367;28;20255;-67
2022/01/13 04:08:05;;;;;;;17.50;15.70;;;;;;;5.47;54.27;100118.47;8400055;28;20226;-67
2022/01/13 04:12:10;;;;;;;17.90;16.00;;;;;;;5.48;54.41;100128.75;8448208;28;20541;-67
2022/01/13 04:16:31;;;;;;;18.40;16.50;;;;;;;5.46;54.25;100124.44;8448001;28;20234;-67
2022/01/13 04:20:36;;;;;;;20.37;17.57;;;;;;;5.50;54.19;100131.31;8447677;28;20525;-67
2022/01/13 04:24:39;;;;;;;18.70;16.80;;;;;;;5.48;54.10;100133.03;8447837;28;20237;-67
2022/01/13 04:28:42;;;;;;;18.23;16.43;;;;;;;5.41;54.46;100138.97;8447645;28;20234;-67
2022/01/13 04:32:45;;;;;;;19.33;17.20;;;;;;;5.57;54.06;100147.69;8447648;28;20249;-67
2022/01/13 04:36:51;;;;;;;19.53;17.53;;;;;;;5.52;54.20;100150.22;8447789;28;20230;-67
2022/01/13 04:40:57;;;;;;;22.87;19.00;;;;;;;5.41;54.88;100154.38;8447822;28;20241;-67
2022/01/13 04:45:00;;;;;;;21.87;18.90;;;;;;;5.49;54.67;100155.31;8447436;28;20226;-67
2022/01/13 04:49:04;;;;;;;20.90;18.67;;;;;;;5.35;55.17;100162.00;8447115;28;20226;-67
2022/01/13 04:53:09;;;;;;;19.37;17.30;;;;;;;5.45;54.85;100154.41;8447437;28;20232;-67
2022/01/13 04:57:17;;;;;;;19.83;17.73;;;;;;;5.52;54.65;100152.78;8447337;28;20387;-67
2022/01/13 05:01:20;;;;;;;20.10;18.00;;;;;;;5.41;54.65;100155.22;8447246;28;20237;-67
2022/01/13 05:05:23;;;;;;;19.70;17.43;;;;;;;5.49;54.64;100143.31;8479317;28;20252;-67
2022/01/13 05:09:27;;;;;;;20.53;18.33;;;;;;;5.53;54.25;100144.22;8480381;28;20229;-67
2022/01/13 05:13:30;;;;;;;23.73;18.90;;;;;;;5.44;54.72;100149.25;8480594;28;20233;-67
2022/01/13 05:17:58;;;;;;;20.53;17.90;;;;;;;5.46;54.57;100151.03;8480256;28;20228;-67
2022/01/13 05:22:16;;;;;;;20.77;18.17;;;;;;;5.51;54.59;100152.78;8480198;28;20291;-67
2022/01/13 05:26:21;;;;;;;19.20;17.33;;;;;;;5.46;54.76;100158.72;8480966;28;20405;-67
2022/01/13 05:30:24;;;;;;;23.27;19.07;;;;;;;5.49;54.83;100153.59;8481039;28;20225;-67
2022/01/13 05:34:28;;;;;;;19.93;17.83;;;;;;;5.48;54.71;100159.59;8480445;28;20233;-67
2022/01/13 05:38:46;;;;;;;19.53;17.53;;;;;;;5.58;54.58;100165.72;8446025;28;20241;-67
2022/01/13 05:42:50;;;;;;;20.00;17.93;;;;;;;5.53;54.40;100164.78;8446343;28;20234;-67
2022/01/13 05:46:53;;;;;;;19.73;17.73;;;;;;;5.55;54.76;100175.94;8446959;28;20238;-67
2022/01/13 05:50:56;;;;;;;19.83;17.67;;;;;;;5.56;54.98;100175.13;8446679;28;20283;-67
2022/01/13 05:54:59;;;;;;;20.60;18.50;;;;;;;5.59;54.51;100167.41;8446131;28;20384;-67
2022/01/13 05:59:04;;;;;;;19.53;17.50;;;;;;;5.61;54.18;100162.28;8450170;28;20226;-67
2022/01/13 06:03:07;;;;;;;19.73;17.77;;;;;;;5.58;54.54;100169.97;8451937;28;20237;-67
2022/01/13 06:07:10;;;;;;;22.13;18.93;;;;;;;5.53;54.65;100172.50;8459762;28;20233;-67
2022/01/13 06:11:13;;;;;;;20.53;18.17;;;;;;;5.65;54.35;100170.06;8480896;28;20230;-67
2022/01/13 06:15:19;;;;;;;20.60;18.47;;;;;;;5.62;54.39;100182.88;8474978;28;20240;-66
2022/01/13 06:19:22;;;;;;;20.73;18.53;;;;;;;5.68;54.48;100182.09;8456456;28;20241;-66
2022/01/13 06:23:25;;;;;;;19.63;17.53;;;;;;;5.71;54.60;100188.97;8451470;28;20241;-66
2022/01/13 06:27:28;;;;;;;20.07;17.87;;;;;;;5.70;54.57;100188.09;8451236;28;20226;-66
2022/01/13 06:31:32;;;;;;;20.80;18.70;;;;;;;5.70;54.81;100194.97;8466037;28;20234;-67
2022/01/13 06:35:36;;;;;;;20.77;18.57;;;;;;;5.70;54.56;100198.38;8484914;28;20395;-67
2022/01/13 06:39:39;;;;;;;23.00;20.57;;;;;;;5.70;54.81;100193.25;8484476;28;20237;-67
2022/01/13 06:43:42;;;;;;;19.97;17.93;;;;;;;5.74;54.30;100194.16;8484278;28;20238;-67
2022/01/13 06:47:46;;;;;;;21.57;19.37;;;;;;;5.68;54.49;100195.81;8484544;28;20288;-67
2022/01/13 06:51:49;;;;;;;19.97;17.83;;;;;;;5.70;54.66;100200.97;8484311;28;20244;-67
2022/01/13 06:55:52;;;;;;;20.67;18.60;;;;;;;5.74;54.53;100200.16;8484209;28;20225;-67
2022/01/13 06:59:55;;;;;;;20.43;18.33;;;;;;;5.70;54.74;100207.81;8484269;28;20230;-67
2022/01/13 07:03:59;;;;;;;19.07;17.17;;;;;;;5.66;54.79;100217.19;8483573;28;20229;-67
2022/01/13 07:08:03;;;;;;;23.70;16.87;;;;;;;5.74;54.77;100214.72;8483790;28;20403;-67
2022/01/13 07:12:08;;;;;;;17.57;15.60;;;;;;;5.68;54.90;100218.94;8483329;28;20229;-67
2022/01/13 07:16:11;;;;;;;19.97;17.87;;;;;;;5.64;54.77;100209.47;8483782;28;20237;-67
2022/01/13 07:20:16;;;;;;;18.60;16.80;;;;;;;5.73;55.13;100223.25;8483794;28;20229;-67
2022/01/13 07:24:19;;;;;;;18.60;16.70;;;;;;;5.73;54.60;100226.72;8483572;28;20237;-66
2022/01/13 07:28:22;;;;;;;32.83;19.43;;;;;;;8.47;83.35;100241.25;8482971;28;20232;-63
2022/01/13 07:32:25;;;;;;;20.33;15.90;;;;;;;9.55;59.03;100228.16;8482970;28;20256;-64
2022/01/13 07:36:29;;;;;;;19.90;18.00;;;;;;;8.39;49.65;100230.91;8482811;28;20236;-67
2022/01/13 07:40:32;;;;;;;17.80;15.90;;;;;;;7.46;50.92;100222.94;8447573;28;20509;-67
2022/01/13 07:44:35;;;;;;;18.50;16.53;;;;;;;6.93;51.57;100229.50;8452386;28;20233;-67
2022/01/13 07:48:38;;;;;;;20.60;17.50;;;;;;;6.68;52.41;100236.22;8448018;28;20226;-67
2022/01/13 07:52:43;;;;;;;18.97;17.07;;;;;;;6.55;52.87;100232.66;8448800;28;20241;-66
2022/01/13 07:56:46;;;;;;;20.03;18.03;;;;;;;6.41;53.17;100232.56;8448628;28;20241;-67
2022/01/13 08:00:49;;;;;;;22.93;17.47;;;;;;;6.40;53.36;100239.44;8448339;28;20229;-67
2022/01/13 08:04:52;;;;;;;20.40;18.40;;;;;;;6.31;53.58;100234.19;8448352;28;20229;-66
2022/01/13 08:08:57;;;;;;;20.43;18.33;;;;;;;6.35;53.23;100237.66;8448605;28;20233;-66
2022/01/13 08:13:00;;;;;;;21.73;19.53;;;;;;;6.24;53.69;100232.41;8448286;28;20230;-67
2022/01/13 08:17:06;;;;;;;22.70;20.17;;;;;;;6.21;53.91;100242.69;8448191;28;20237;-66
2022/01/13 08:21:09;;;;;;;21.43;19.23;;;;;;;6.16;53.68;100245.19;8447200;28;20230;-67
2022/01/13 08:25:15;;;;;;;22.80;20.43;;;;;;;6.00;54.05;100241.63;8448373;28;20237;-67
2022/01/13 08:29:18;;;;;;;22.37;20.03;;;;;;;6.05;54.31;100246.78;8448374;28;20226;-66
2022/01/13 08:33:22;;;;;;;24.27;21.77;;;;;;;5.72;55.23;100252.41;8447844;28;20237;-67
2022/01/13 08:37:25;;;;;;;24.93;22.43;;;;;;;5.82;54.61;100243.94;8447963;28;20234;-68
2022/01/13 08:41:30;;;;;;;24.93;22.23;;;;;;;5.84;54.71;100240.53;8448134;28;20233;-67
2022/01/13 08:45:33;;;;;;;24.93;22.27;;;;;;;5.79;54.63;100247.34;8447049;28;20225;-67
2022/01/13 08:49:37;;;;;;;24.37;21.87;;;;;;;6.01;54.38;100239.91;8447430;28;20230;-67
2022/01/13 08:53:40;;;;;;;27.90;22.77;;;;;;;5.82;54.38;100238.81;8447286;28;20310;-67
2022/01/13 08:57:45;;;;;;;24.33;21.87;;;;;;;5.81;54.73;100232.81;8446393;28;20236;-67
2022/01/13 09:01:48;;;;;;;25.00;22.47;;;;;;;5.98;54.00;100227.03;8446638;28;20230;-67
2022/01/13 09:05:51;;;;;;;24.50;22.00;;;;;;;6.03;54.14;100223.63;8447065;28;20250;-66
2022/01/13 09:09:54;;;;;;;24.93;22.33;;;;;;;6.00;53.91;100226.19;8447164;28;20537;-66
2022/01/13 09:13:59;;;;;;;25.00;22.40;;;;;;;5.98;53.74;100216.72;8446872;28;20230;-66
2022/01/13 09:18:08;;;;;;;24.70;21.33;;;;;;;6.04;54.13;100211.66;8446974;28;20230;-66
2022/01/13 09:22:11;;;;;;;23.00;20.70;;;;;;;5.91;54.45;100226.03;8447109;28;20252;-66
2022/01/13 09:26:14;;;;;;;23.50;21.10;;;;;;;6.09;53.87;100235.69;8447151;28;20537;-66
2022/01/13 09:30:19;;;;;;;23.30;20.90;;;;;;;6.09;53.81;100230.53;8447132;28;20241;-67
2022/01/13 09:34:22;;;;;;;21.27;19.07;;;;;;;6.12;53.01;100235.72;8451562;28;20234;-67
2022/01/13 09:38:25;;;;;;;20.70;18.57;;;;;;;6.16;53.40;100244.34;8453316;28;20560;-67
2022/01/13 09:42:28;;;;;;;22.43;20.10;;;;;;;6.26;53.22;100249.59;8453175;28;20248;-67
2022/01/13 09:46:34;;;;;;;23.50;20.97;;;;;;;6.19;53.54;100254.69;8452758;28;20409;-67
2022/01/13 09:50:37;;;;;;;22.10;19.90;;;;;;;6.14;53.44;100249.47;8452665;28;20229;-67
2022/01/13 09:54:40;;;;;;;21.77;19.67;;;;;;;6.13;53.14;100252.91;8452945;28;20283;-70
2022/01/13 09:58:44;;;;;;;22.20;20.00;;;;;;;6.16;53.40;100252.91;8452627;28;20424;-70
2022/01/13 10:02:48;;;;;;;24.37;21.77;;;;;;;6.31;53.35;100254.78;8452531;28;20246;-70
2022/01/13 10:06:52;;;;;;;22.93;20.73;;;;;;;6.33;53.23;100277.97;8452716;28;20252;-70
2022/01/13 10:10:55;;;;;;;23.73;21.23;;;;;;;6.33;53.19;100276.25;8452205;28;20230;-71
2022/01/13 10:19:30;;;;;;;22.50;20.30;;;;;;;6.43;53.17;100285.75;8452397;28;20407;-70
2022/01/13 10:23:32;;;;;;;22.17;19.63;;;;;;;6.27;53.35;100294.19;8451498;28;20237;-70
2022/01/13 10:27:39;;;;;;;22.20;20.00;;;;;;;6.40;53.70;100296.06;8451349;28;20230;-70
2022/01/13 10:31:50;;;;;;;27.40;24.63;;;;;;;6.30;53.35;100290.78;8451359;28;20294;-68
2022/01/13 10:35:57;;;;;;;24.27;21.53;;;;;;;6.31;53.08;100282.22;8451138;28;20299;-69
2022/01/13 10:40:03;;;;;;;24.63;22.20;;;;;;;6.39;53.22;100284.00;8450963;28;20237;-70
2022/01/13 10:44:13;;;;;;;25.37;22.80;;;;;;;6.51;53.16;100277.25;8449807;28;20443;-68
2022/01/13 10:48:19;;;;;;;24.87;22.27;;;;;;;6.29;53.34;100271.06;8451028;28;20268;-69
2022/01/13 10:52:26;;;;;;;25.67;23.17;;;;;;;6.28;52.67;100261.59;8450872;28;20244;-69
2022/01/13 10:56:29;;;;;;;25.97;23.33;;;;;;;6.37;53.15;100256.53;8450784;28;20536;-70
2022/01/13 11:00:34;;;;;;;24.73;22.03;;;;;;;6.52;52.75;100246.38;8449772;28;20222;-70
2022/01/13 11:04:37;;;;;;;24.43;19.80;;;;;;;6.56;52.86;100247.28;8449836;28;20244;-69
2022/01/13 11:08:44;;;;;;;22.20;20.10;;;;;;;6.17;52.63;100240.91;8450302;28;20244;-71
2022/01/13 11:12:58;;;;;;;22.80;20.50;;;;;;;6.34;52.99;100239.38;8470146;28;20229;-71
2022/01/13 11:17:01;;;;;;;22.93;20.63;;;;;;;6.53;52.63;100249.81;8483686;28;20235;-69
2022/01/13 11:21:05;;;;;;;22.93;19.63;;;;;;;6.67;52.16;100255.94;8483888;28;20236;-69
2022/01/13 11:25:12;;;;;;;21.50;19.40;;;;;;;6.66;51.91;100256.78;8483395;28;20230;-68
2022/01/13 11:29:16;;;;;;;21.30;19.13;;;;;;;6.93;51.08;100252.69;8483339;28;20236;-69
2022/01/13 11:33:20;;;;;;;22.23;19.93;;;;;;;7.10;51.07;100243.38;8482726;28;20302;-69
2022/01/13 11:37:26;;;;;;;23.13;19.80;;;;;;;7.14;51.42;100239.97;8483331;28;20239;-69
2022/01/13 11:41:31;;;;;;;23.40;20.83;;;;;;;7.15;50.38;100243.41;8482989;28;20229;-70
2022/01/13 11:45:40;;;;;;;21.93;19.63;;;;;;;7.53;49.15;100240.16;8482216;28;20225;-70
2022/01/13 11:49:58;;;;;;;22.73;20.33;;;;;;;7.52;50.14;100226.41;8482340;28;20296;-67
2022/01/13 11:54:04;;;;;;;22.23;20.03;;;;;;;7.62;49.31;100222.16;8482595;28;20229;-67
2022/01/13 11:58:25;;;;;;;22.10;19.87;;;;;;;7.85;49.01;100221.38;8482296;28;20544;-67
2022/01/13 12:02:30;;;;;;;22.13;19.83;;;;;;;7.82;49.57;100205.03;8475436;28;20233;-68
2022/01/13 12:06:43;;;;;;;20.80;18.70;;;;;;;7.68;49.10;100201.53;8455840;28;20258;-67
2022/01/13 12:10:51;;;;;;;22.57;20.20;;;;;;;7.66;49.33;100187.78;8448240;28;20238;-67
2022/01/13 12:15:14;;;;;;;20.50;18.20;;;;;;;7.56;49.02;100181.72;8447843;28;20240;-68
2022/01/13 12:19:28;;;;;;;22.47;20.27;;;;;;;7.19;49.76;100191.03;8448041;28;20225;-67
2022/01/13 12:23:42;;;;;;;24.00;21.40;;;;;;;7.66;49.66;100190.34;8455859;28;20222;-69
2022/01/13 12:27:48;;;;;;;21.73;19.53;;;;;;;7.82;49.30;100179.22;8448015;28;20253;-67
2022/01/13 12:31:55;;;;;;;25.43;20.67;;;;;;;7.88;49.57;100169.75;8447594;28;20242;-68
2022/01/13 12:35:58;;;;;;;22.50;20.20;;;;;;;7.54;49.89;100162.81;8447483;28;20237;-66
2022/01/13 12:40:06;;;;;;;22.80;20.40;;;;;;;7.13;50.36;100158.34;8447844;28;20226;-68
2022/01/13 12:44:21;;;;;;;22.47;20.27;;;;;;;7.66;49.56;100156.84;8447368;28;20233;-69
2022/01/13 12:48:29;;;;;;;23.23;20.83;;;;;;;7.76;49.61;100145.66;8447440;28;20226;-68
2022/01/13 12:52:32;;;;;;;23.40;20.50;;;;;;;7.69;49.26;100135.34;8447127;28;20286;-68
2022/01/13 12:56:35;;;;;;;23.20;20.90;;;;;;;7.86;49.44;100137.94;8447254;28;20236;-70
2022/01/13 13:00:39;;;;;;;22.70;20.20;;;;;;;7.63;49.38;100141.34;8447227;28;20537;-68
2022/01/13 13:04:43;;;;;;;24.57;20.43;;;;;;;7.65;49.95;100137.03;8447040;28;20414;-69
2022/01/13 13:08:49;;;;;;;24.57;21.80;;;;;;;7.48;50.05;100134.41;8451431;28;20521;-70
2022/01/13 13:12:53;;;;;;;24.20;21.43;;;;;;;7.78;49.40;100135.34;8454254;28;20252;-68
2022/01/13 13:16:56;;;;;;;33.90;22.00;;;;;;;7.82;48.98;100130.22;8454223;28;20395;-70
2022/01/13 13:21:02;;;;;;;22.63;20.33;;;;;;;7.98;48.93;100127.66;8453604;28;20233;-71
2022/01/13 13:25:05;;;;;;;24.83;21.20;;;;;;;7.92;49.38;100118.19;8453470;28;20233;-70
2022/01/13 13:29:08;;;;;;;22.97;20.57;;;;;;;8.25;47.84;100123.34;8453750;28;20233;-71
2022/01/13 13:33:11;;;;;;;24.83;21.70;;;;;;;8.25;47.91;100121.63;8453112;28;20237;-69
2022/01/13 13:37:16;;;;;;;24.30;21.90;;;;;;;8.12;47.75;100120.75;8453349;28;20425;-71
2022/01/13 13:41:20;;;;;;;22.63;20.33;;;;;;;8.41;47.96;100115.63;8452995;28;20229;-72
2022/01/13 13:45:43;;;;;;;25.47;22.87;;;;;;;8.41;48.13;100128.53;8452394;28;20230;-70
2022/01/13 13:49:48;;;;;;;23.43;21.10;;;;;;;8.40;48.12;100121.59;8452692;28;20237;-69
2022/01/13 13:54:10;;;;;;;23.67;21.27;;;;;;;8.50;47.16;100114.75;8452763;28;20245;-68
2022/01/13 13:58:20;;;;;;;24.97;22.20;;;;;;;8.37;47.74;100116.44;8452529;28;20233;-71
2022/01/13 14:02:29;;;;;;;23.93;21.37;;;;;;;8.14;48.94;100121.63;8451134;28;20234;-72
2022/01/13 14:06:42;;;;;;;23.73;21.17;;;;;;;8.39;48.01;100109.53;8451912;28;20225;-69
2022/01/13 14:10:46;;;;;;;24.17;21.47;;;;;;;8.23;48.63;100110.44;8452067;28;20230;-71
2022/01/13 14:14:49;;;;;;;23.90;21.40;;;;;;;8.41;48.42;100113.06;8451837;28;20422;-71
2022/01/13 14:19:04;;;;;;;23.20;20.87;;;;;;;8.36;48.57;100122.47;8450062;28;20237;-71
2022/01/13 14:23:09;;;;;;;23.60;20.40;;;;;;;8.20;49.07;100108.69;8451658;28;20229;-71
2022/01/13 14:27:15;;;;;;;34.23;29.60;;;;;;;8.22;49.06;100113.88;8451304;28;20237;-71
2022/01/13 14:31:18;;;;;;;23.30;20.80;;;;;;;8.20;49.40;100106.13;8451461;28;20245;-69
2022/01/13 14:35:28;;;;;;;24.90;22.30;;;;;;;7.94;49.51;100107.84;8451262;28;20509;-70
2022/01/13 14:39:31;;;;;;;23.07;20.50;;;;;;;7.85;49.45;100107.88;8450511;28;20311;-70
2022/01/13 14:43:37;;;;;;;23.50;21.00;;;;;;;7.75;51.36;100115.59;8451024;28;20237;-71
2022/01/13 14:47:40;;;;;;;22.07;19.67;;;;;;;7.91;50.37;100119.03;8450805;28;20253;-70
2022/01/13 14:51:47;;;;;;;24.17;21.67;;;;;;;7.80;50.95;100102.69;8450552;28;20226;-66
2022/01/13 14:55:51;;;;;;;22.73;20.33;;;;;;;7.80;50.66;100115.56;8449966;28;20238;-66
2022/01/13 14:59:56;;;;;;;23.07;20.67;;;;;;;7.92;50.20;100120.78;8450396;28;20414;-66
2022/01/13 15:03:59;;;;;;;24.53;21.93;;;;;;;7.41;51.23;100119.81;8449862;28;20576;-65
2022/01/13 15:08:02;;;;;;;23.90;21.47;;;;;;;7.62;51.42;100113.84;8449963;28;20241;-66
2022/01/13 15:12:06;;;;;;;25.50;22.40;;;;;;;7.41;51.39;100110.34;8449709;28;20226;-69
2022/01/13 15:16:10;;;;;;;24.67;22.17;;;;;;;7.44;51.27;100117.22;8449625;28;20547;-69
2022/01/13 15:20:14;;;;;;;24.83;22.33;;;;;;;7.34;52.17;100107.75;8444720;28;20414;-69
2022/01/13 15:24:17;;;;;;;26.27;23.43;;;;;;;7.22;51.84;100104.28;8452974;28;20226;-69
2022/01/13 15:28:20;;;;;;;27.00;24.20;;;;;;;7.05;52.60;100099.06;8479374;28;20229;-69
2022/01/13 15:32:24;;;;;;;26.50;23.57;;;;;;;7.20;52.62;100102.56;8466402;28;20233;-69
2022/01/13 15:36:27;;;;;;;27.17;24.37;;;;;;;7.23;52.58;100107.72;8477521;28;20237;-70
2022/01/13 15:40:31;;;;;;;27.40;24.57;;;;;;;7.15;52.34;100099.09;8468551;28;20229;-69
2022/01/13 15:44:34;;;;;;;25.67;22.83;;;;;;;7.12;52.85;100097.38;8448478;28;20544;-69
2022/01/13 15:48:40;;;;;;;25.70;22.60;;;;;;;7.14;52.91;100097.38;8470802;28;20226;-69
2022/01/13 15:52:43;;;;;;;26.23;23.53;;;;;;;7.11;52.93;100108.53;8475893;28;20537;-69
2022/01/13 15:56:46;;;;;;;26.73;23.87;;;;;;;6.88;53.17;100107.59;8448840;28;20237;-70
2022/01/13 16:00:49;;;;;;;26.07;23.27;;;;;;;6.97;53.30;100103.34;8449268;28;20230;-69
2022/01/13 16:04:53;;;;;;;28.53;24.03;;;;;;;6.91;53.29;100107.56;8481718;28;20506;-69
2022/01/13 16:08:56;;;;;;;27.10;24.20;;;;;;;6.93;53.30;100106.75;8482211;28;20229;-69
2022/01/13 16:12:59;;;;;;;27.53;24.20;;;;;;;6.90;53.30;100106.72;8482469;28;20236;-70
2022/01/13 16:17:03;;;;;;;28.63;24.90;;;;;;;6.64;53.84;100111.72;8481612;28;20229;-69
2022/01/13 16:21:09;;;;;;;27.20;23.93;;;;;;;6.79;53.76;100111.81;8481337;28;20233;-69
2022/01/13 16:25:13;;;;;;;26.17;23.27;;;;;;;6.54;54.15;100117.69;8481920;28;20233;-69
2022/01/13 16:29:52;;;;;;;25.57;22.97;;;;;;;6.74;54.04;100123.81;8481875;28;20225;-70
2022/01/13 16:33:55;;;;;;;28.00;24.27;;;;;;;6.55;53.98;100117.69;8452088;28;20293;-69
2022/01/13 16:38:02;;;;;;;27.47;24.57;;;;;;;6.45;53.87;100128.78;8447363;28;20510;-69
2022/01/13 16:42:05;;;;;;;27.13;24.13;;;;;;;6.57;54.26;100118.56;8446530;28;20226;-62
2022/01/13 16:46:08;;;;;;;27.77;24.80;;;;;;;6.59;54.05;100123.72;8447217;28;20283;-62
2022/01/13 16:50:12;;;;;;;27.43;24.27;;;;;;;6.61;54.30;100134.91;8447188;28;20240;-61
2022/01/13 16:54:18;;;;;;;30.17;24.30;;;;;;;6.59;54.02;100127.16;8447240;28;20233;-61
2022/01/13 16:58:23;;;;;;;28.90;25.83;;;;;;;6.52;54.22;100127.97;8447152;28;20275;-61
2022/01/13 17:02:27;;;;;;;28.80;25.63;;;;;;;6.57;54.13;100113.41;8447081;28;20234;-60
2022/01/13 17:06:30;;;;;;;29.90;25.93;;;;;;;6.53;53.89;100113.38;8446862;28;20415;-61
2022/01/13 17:10:35;;;;;;;29.27;26.17;;;;;;;6.45;54.39;100109.06;8446292;28;20228;-61
2022/01/13 17:14:38;;;;;;;30.37;26.83;;;;;;;6.41;54.26;100106.44;8446794;28;20226;-62
2022/01/13 17:18:41;;;;;;;30.63;26.27;;;;;;;6.02;55.03;100098.44;8446827;28;20238;-62
2022/01/13 17:22:44;;;;;;;29.03;25.27;;;;;;;6.31;54.64;100086.66;8446519;28;20441;-61
2022/01/13 17:26:50;;;;;;;29.30;25.93;;;;;;;6.15;55.06;100088.22;8446547;28;20443;-60
2022/01/13 17:30:52;;;;;;;29.13;25.83;;;;;;;6.23;54.18;100078.88;8446506;28;20508;-61
2022/01/13 17:34:56;;;;;;;29.40;26.10;;;;;;;6.17;54.87;100078.81;8446482;28;20237;-60
2022/01/13 17:38:59;;;;;;;30.70;26.77;;;;;;;5.73;55.74;100072.47;8445998;28;20229;-61
2022/01/13 17:43:04;;;;;;;29.77;26.57;;;;;;;5.83;55.37;100078.53;8446290;28;20234;-62
2022/01/13 17:47:09;;;;;;;33.10;27.80;;;;;;;5.90;55.14;100085.44;8446535;28;20234;-61
2022/01/13 17:51:13;;;;;;;33.03;27.40;;;;;;;5.98;55.35;100085.56;8446272;28;20244;-63
2022/01/13 17:55:16;;;;;;;34.87;30.37;;;;;;;5.92;55.20;100088.03;8450746;28;20225;-62
2022/01/13 17:59:20;;;;;;;31.07;27.80;;;;;;;5.80;55.63;100084.50;8452521;28;20230;-61
2022/01/13 18:03:23;;;;;;;40.67;33.33;;;;;;;5.97;55.29;100096.69;8452659;28;20435;-68
2022/01/13 18:07:26;;;;;;;37.00;28.40;;;;;;;5.70;55.61;100097.28;8451890;28;20233;-67
2022/01/13 18:11:33;;;;;;;34.17;29.10;;;;;;;5.87;55.09;100090.56;8443547;28;20230;-67
2022/01/13 18:15:37;;;;;;;31.70;26.90;;;;;;;6.01;54.42;100095.84;8426817;28;20223;-66
2022/01/13 18:19:41;;;;;;;33.40;27.10;;;;;;;5.86;54.79;100091.41;8418173;28;20230;-66
2022/01/13 18:23:44;;;;;;;30.00;25.27;;;;;;;5.98;54.89;100088.13;8417853;28;20241;-66
2022/01/13 18:27:46;;;;;;;33.93;26.90;;;;;;;5.82;54.87;100075.09;8418129;28;20436;-66
2022/01/13 18:31:55;;;;;;;30.03;26.70;;;;;;;5.87;54.93;100081.13;8417534;28;20247;-66
2022/01/13 18:35:58;;;;;;;32.00;25.73;;;;;;;5.85;54.79;100067.41;8417785;28;20231;-66
2022/01/13 18:40:01;;;;;;;29.97;26.23;;;;;;;5.98;55.00;100063.25;8417821;28;20424;-66
2022/01/13 18:44:05;;;;;;;29.63;26.00;;;;;;;5.92;54.78;100060.63;8425570;28;20229;-66
2022/01/13 18:48:10;;;;;;;28.53;24.73;;;;;;;5.94;54.81;100055.47;8450563;28;20230;-66
2022/01/13 18:52:13;;;;;;;33.40;26.63;;;;;;;5.91;54.69;100052.88;8449944;28;20222;-66